Time;durP1;ratioP1;P1;durP2;ratioP2;P2;SDS_P1;SDS_P2;PMS_P1;PMS_P2;Temp;Humidity;BMP_temperature;BMP_pressure;BME280_temperature;BME280_humidity;BME280_pressure;Samples;Min_cycle;Max_cycle;Signal;HPM_P1;HPM_P2
2023/04/28 00:00:03;;;;;;;1.67;1.67;;;18.50;67.40;;;;;;5072147;28;43820;-77
2023/04/28 00:02:34;;;;;;;1.73;1.73;;;18.50;67.30;;;;;;5061570;28;43492;-79
2023/04/28 00:05:02;;;;;;;1.83;1.83;;;18.50;67.10;;;;;;5067487;28;43419;-78
2023/04/28 00:07:32;;;;;;;1.83;1.83;;;18.50;67.10;;;;;;5068508;28;43615;-77
2023/04/28 00:10:00;;;;;;;1.80;1.80;;;18.40;67.20;;;;;;5062284;28;46408;-77
2023/04/28 00:12:28;;;;;;;1.60;1.60;;;18.40;67.50;;;;;;5068065;28;44881;-77
2023/04/28 00:14:56;;;;;;;1.83;1.83;;;18.40;67.70;;;;;;5067996;28;43467;-77
2023/04/28 00:17:24;;;;;;;1.60;1.60;;;18.40;67.40;;;;;;5072216;28;43472;-78
2023/04/28 00:19:54;;;;;;;1.60;1.60;;;18.40;67.40;;;;;;5065912;28;46032;-78
2023/04/28 00:22:22;;;;;;;1.60;1.60;;;18.40;67.40;;;;;;5073768;28;43461;-78
2023/04/28 00:24:50;;;;;;;1.70;1.70;;;18.30;67.50;;;;;;5072997;28;43456;-78
2023/04/28 00:27:19;;;;;;;1.63;1.63;;;18.30;67.80;;;;;;5070941;28;43524;-78
2023/04/28 00:29:47;;;;;;;1.40;1.40;;;18.30;67.70;;;;;;5068281;28;44070;-78
2023/04/28 00:32:15;;;;;;;1.57;1.57;;;18.30;67.50;;;;;;5071518;28;43536;-77
2023/04/28 00:34:43;;;;;;;1.50;1.50;;;18.30;67.50;;;;;;5066420;28;43399;-77
2023/04/28 00:37:13;;;;;;;1.50;1.50;;;18.30;67.50;;;;;;5081869;28;44117;-77
2023/04/28 00:39:41;;;;;;;1.93;1.87;;;18.30;67.60;;;;;;5068328;28;45403;-77
2023/04/28 00:42:09;;;;;;;1.83;1.83;;;18.30;67.90;;;;;;5067880;28;43460;-77
2023/04/28 00:44:38;;;;;;;1.63;1.63;;;18.40;67.80;;;;;;5059972;28;43434;-77
2023/04/28 00:47:06;;;;;;;1.70;1.70;;;18.50;67.60;;;;;;5064536;28;43462;-78
2023/04/28 00:49:35;;;;;;;1.60;1.60;;;18.60;67.20;;;;;;5065948;28;44030;-78
2023/04/28 00:52:05;;;;;;;1.50;1.50;;;18.60;67.00;;;;;;5067733;28;45305;-79
2023/04/28 00:54:35;;;;;;;1.50;1.50;;;18.60;67.60;;;;;;5071286;28;43539;-79
2023/04/28 00:57:03;;;;;;;1.70;1.70;;;18.60;67.20;;;;;;5069121;28;43947;-79
2023/04/28 00:59:31;;;;;;;1.40;1.40;;;18.60;67.20;;;;;;5066394;28;43853;-78
2023/04/28 01:02:00;;;;;;;1.60;1.60;;;18.60;67.10;;;;;;5068987;22;44002;-79
2023/04/28 01:04:28;;;;;;;1.77;1.77;;;18.50;66.90;;;;;;5041656;28;43480;-79
2023/04/28 01:06:56;;;;;;;1.60;1.60;;;18.50;67.70;;;;;;5045743;28;43956;-79
2023/04/28 01:09:25;;;;;;;1.70;1.70;;;18.40;67.10;;;;;;5044034;28;44043;-79
2023/04/28 01:11:57;;;;;;;1.50;1.50;;;18.40;67.60;;;;;;5043437;28;43492;-80
2023/04/28 01:14:42;;;;;;;1.70;1.70;;;18.40;67.50;;;;;;5044218;28;43949;-79
2023/04/28 01:17:10;;;;;;;1.50;1.50;;;18.40;67.40;;;;;;5045634;28;44127;-78
2023/04/28 01:19:39;;;;;;;1.60;1.60;;;18.40;67.40;;;;;;5049579;28;45607;-78
2023/04/28 01:22:09;;;;;;;1.67;1.67;;;18.40;67.50;;;;;;5046232;28;43416;-79
2023/04/28 01:24:39;;;;;;;1.50;1.50;;;18.40;67.80;;;;;;5049328;28;44022;-79
2023/04/28 01:27:08;;;;;;;1.73;1.73;;;18.40;67.90;;;;;;5042264;28;44012;-79
2023/04/28 01:29:40;;;;;;;1.40;1.40;;;18.40;67.70;;;;;;5057150;28;43973;-79
2023/04/28 01:32:08;;;;;;;1.60;1.60;;;18.50;67.40;;;;;;5040614;28;44743;-78
2023/04/28 01:34:36;;;;;;;1.57;1.57;;;18.50;67.20;;;;;;5050551;28;43974;-79
2023/04/28 01:37:06;;;;;;;1.60;1.60;;;18.50;67.00;;;;;;5040659;28;44000;-79
2023/04/28 01:39:37;;;;;;;1.70;1.70;;;18.50;67.40;;;;;;5042285;28;43703;-79
2023/04/28 01:42:06;;;;;;;1.63;1.63;;;18.50;67.50;;;;;;5065223;28;44623;-79
2023/04/28 01:44:34;;;;;;;1.57;1.57;;;18.50;67.20;;;;;;5039353;28;43495;-79
2023/04/28 01:47:02;;;;;;;1.40;1.40;;;18.50;67.30;;;;;;5030193;28;43887;-79
2023/04/28 01:49:31;;;;;;;1.63;1.63;;;18.40;67.20;;;;;;5048161;28;46170;-79
2023/04/28 01:51:59;;;;;;;1.60;1.60;;;18.40;67.40;;;;;;5040340;28;45188;-79
2023/04/28 01:54:28;;;;;;;1.50;1.50;;;18.40;67.70;;;;;;5054290;28;44328;-79
2023/04/28 01:56:56;;;;;;;1.50;1.50;;;18.40;67.70;;;;;;5043201;28;44012;-79
2023/04/28 01:59:26;;;;;;;1.60;1.60;;;18.40;67.60;;;;;;5042892;28;45452;-76
2023/04/28 02:01:54;;;;;;;1.70;1.70;;;18.40;68.20;;;;;;5044544;28;44343;-79
2023/04/28 02:04:23;;;;;;;1.80;1.80;;;18.30;67.50;;;;;;5035421;28;43519;-78
2023/04/28 02:06:51;;;;;;;1.77;1.77;;;18.30;67.70;;;;;;5039576;28;43412;-79
2023/04/28 02:09:20;;;;;;;1.50;1.50;;;18.40;67.90;;;;;;5046735;28;45815;-79
2023/04/28 02:11:48;;;;;;;1.50;1.50;;;18.40;67.70;;;;;;5034168;28;44442;-77
2023/04/28 02:14:16;;;;;;;1.60;1.60;;;18.50;67.50;;;;;;5028090;28;44178;-79
2023/04/28 02:16:46;;;;;;;1.47;1.47;;;18.60;67.30;;;;;;5034065;28;44006;-79
2023/04/28 02:19:14;;;;;;;1.60;1.60;;;18.50;67.00;;;;;;5031394;28;45759;-78
2023/04/28 02:21:42;;;;;;;1.60;1.60;;;18.50;67.30;;;;;;5040020;28;43522;-80
2023/04/28 02:24:10;;;;;;;1.57;1.57;;;18.50;67.30;;;;;;5034931;28;43413;-79
2023/04/28 02:26:38;;;;;;;1.67;1.67;;;18.50;67.10;;;;;;5027912;28;44420;-79
2023/04/28 02:29:06;;;;;;;1.50;1.50;;;18.50;67.10;;;;;;5027684;28;43929;-79
2023/04/28 02:31:34;;;;;;;1.20;1.20;;;18.50;67.20;;;;;;5036267;28;43390;-79
2023/04/28 02:34:04;;;;;;;1.40;1.40;;;18.40;67.30;;;;;;5031688;28;43507;-79
2023/04/28 02:36:32;;;;;;;1.30;1.30;;;18.40;67.70;;;;;;5031044;28;43415;-79
2023/04/28 02:39:00;;;;;;;1.50;1.50;;;18.40;67.50;;;;;;5035835;28;45645;-78
2023/04/28 02:41:29;;;;;;;1.50;1.50;;;18.40;67.40;;;;;;5029783;28;43811;-79
2023/04/28 02:43:58;;;;;;;1.60;1.60;;;18.40;67.40;;;;;;5040362;28;43392;-79
2023/04/28 02:46:26;;;;;;;1.40;1.40;;;18.40;67.50;;;;;;5033211;28;43498;-79
2023/04/28 02:48:54;;;;;;;1.60;1.60;;;18.30;67.70;;;;;;5029767;28;44238;-78
2023/04/28 02:51:25;;;;;;;1.40;1.40;;;18.40;67.90;;;;;;5034031;28;45220;-78
2023/04/28 02:53:54;;;;;;;1.40;1.40;;;18.30;67.50;;;;;;5032138;28;43452;-78
2023/04/28 02:56:23;;;;;;;1.53;1.53;;;18.30;67.50;;;;;;5030277;28;43600;-77
2023/04/28 02:58:51;;;;;;;1.20;1.20;;;18.30;67.60;;;;;;5031746;28;46135;-79
2023/04/28 03:01:19;;;;;;;1.30;1.30;;;18.30;67.60;;;;;;5028455;28;43501;-79
2023/04/28 03:03:47;;;;;;;1.43;1.43;;;18.30;67.90;;;;;;5031343;28;43423;-78
2023/04/28 03:06:15;;;;;;;1.40;1.40;;;18.40;67.90;;;;;;5036355;28;43568;-78
2023/04/28 03:08:45;;;;;;;1.50;1.50;;;18.50;67.70;;;;;;5030103;28;45388;-79
2023/04/28 03:11:13;;;;;;;1.40;1.40;;;18.60;67.40;;;;;;5026266;28;44898;-79
2023/04/28 03:13:41;;;;;;;1.67;1.60;;;18.60;67.00;;;;;;5041652;28;43875;-79
2023/04/28 03:16:09;;;;;;;1.40;1.40;;;18.60;66.90;;;;;;5028188;28;43531;-79
2023/04/28 03:18:37;;;;;;;1.40;1.40;;;18.60;67.00;;;;;;5034370;28;44131;-79
2023/04/28 03:21:05;;;;;;;1.43;1.43;;;18.60;67.20;;;;;;5031793;28;44941;-77
2023/04/28 03:23:33;;;;;;;1.40;1.40;;;18.60;67.20;;;;;;5030704;28;44017;-78
2023/04/28 03:26:03;;;;;;;1.30;1.30;;;18.60;66.90;;;;;;5032495;28;43489;-78
2023/04/28 03:28:31;;;;;;;1.30;1.30;;;18.50;66.80;;;;;;5030211;28;45336;-79
2023/04/28 03:31:01;;;;;;;1.50;1.50;;;18.50;67.00;;;;;;5043607;28;44541;-78
2023/04/28 03:33:29;;;;;;;1.50;1.50;;;18.40;67.40;;;;;;5029053;28;43397;-78
2023/04/28 03:35:59;;;;;;;1.40;1.40;;;18.40;67.50;;;;;;5031409;28;43568;-79
2023/04/28 03:38:27;;;;;;;1.40;1.40;;;18.40;67.30;;;;;;5024770;28;43991;-78
2023/04/28 03:40:55;;;;;;;1.60;1.60;;;18.40;67.30;;;;;;5033539;28;44447;-79
2023/04/28 03:43:45;;;;;;;1.50;1.50;;;18.40;67.40;;;;;;5034560;28;43464;-78
2023/04/28 03:46:24;;;;;;;1.50;1.50;;;18.40;67.70;;;;;;5030427;28;43504;-77
2023/04/28 03:48:55;;;;;;;1.77;1.77;;;18.40;67.80;;;;;;5025737;28;45996;-79
2023/04/28 03:51:24;;;;;;;1.70;1.60;;;18.40;67.60;;;;;;5027647;28;43908;-79
2023/04/28 03:53:52;;;;;;;1.70;1.70;;;18.40;67.50;;;;;;5026998;28;43551;-79
2023/04/28 03:56:23;;;;;;;2.10;1.90;;;18.40;67.60;;;;;;5037240;28;43601;-79
2023/04/28 03:58:52;;;;;;;2.30;2.10;;;18.40;67.70;;;;;;5031124;28;46267;-79
2023/04/28 04:01:20;;;;;;;2.33;2.20;;;18.40;68.70;;;;;;5030132;28;44092;-79
2023/04/28 04:03:48;;;;;;;2.83;2.33;;;18.40;68.00;;;;;;5041448;28;43875;-76
2023/04/28 04:06:18;;;;;;;4.00;2.30;;;18.50;67.70;;;;;;5031063;28;43979;-78
2023/04/28 04:08:48;;;;;;;2.83;2.63;;;18.60;67.40;;;;;;5024612;28;45872;-78
2023/04/28 04:11:16;;;;;;;3.17;2.90;;;18.60;67.10;;;;;;5029107;28;44612;-79
2023/04/28 04:13:46;;;;;;;3.47;3.27;;;18.70;67.00;;;;;;5026793;28;43551;-78
2023/04/28 04:16:18;;;;;;;3.93;2.90;;;18.60;67.20;;;;;;5047411;28;43535;-78
2023/04/28 04:18:46;;;;;;;3.63;2.93;;;18.60;67.20;;;;;;5048704;28;43820;-79
2023/04/28 04:21:19;;;;;;;3.83;3.17;;;18.60;66.90;;;;;;5032615;28;44804;-79
2023/04/28 04:23:50;;;;;;;3.40;2.97;;;18.60;67.00;;;;;;5023792;28;43552;-79
2023/04/28 04:26:20;;;;;;;6.10;3.50;;;18.50;67.10;;;;;;5038596;28;43675;-73
2023/04/28 04:28:50;;;;;;;5.90;4.13;;;18.50;67.60;;;;;;5040174;28;43831;-74
2023/04/28 04:31:21;;;;;;;6.70;3.50;;;18.50;67.60;;;;;;5042496;28;44949;-74
2023/04/28 04:33:49;;;;;;;5.57;3.47;;;18.50;67.50;;;;;;5043324;28;43365;-73
2023/04/28 04:36:19;;;;;;;5.07;3.47;;;18.40;67.40;;;;;;5044236;28;43750;-72
2023/04/28 04:38:47;;;;;;;8.43;3.87;;;18.40;67.40;;;;;;5050104;28;44293;-75
2023/04/28 04:41:19;;;;;;;6.97;4.37;;;18.40;67.50;;;;;;5038659;28;44333;-72
2023/04/28 04:43:48;;;;;;;7.13;4.40;;;18.40;67.80;;;;;;5040985;28;44065;-71
2023/04/28 04:46:16;;;;;;;7.83;4.60;;;18.40;67.80;;;;;;5045410;28;43481;-75
2023/04/28 04:48:45;;;;;;;5.83;4.50;;;18.50;67.50;;;;;;5040667;28;45656;-72
2023/04/28 04:51:13;;;;;;;6.63;4.23;;;18.60;67.30;;;;;;5042641;28;44439;-73
2023/04/28 04:53:42;;;;;;;6.50;4.37;;;18.60;67.80;;;;;;5044217;28;43571;-73
2023/04/28 04:56:10;;;;;;;8.33;4.70;;;18.60;66.90;;;;;;5039599;28;43538;-75
2023/04/28 04:58:38;;;;;;;5.30;4.40;;;18.60;67.40;;;;;;5055191;28;43806;-73
2023/04/28 05:01:25;;;;;;;6.53;4.20;;;18.60;67.30;;;;;;5058229;28;43417;-75
2023/04/28 05:03:55;;;;;;;6.13;4.00;;;18.60;67.10;;;;;;5049324;28;43476;-73
2023/04/28 05:06:25;;;;;;;4.37;3.97;;;18.60;67.20;;;;;;5051780;28;43476;-74
2023/04/28 05:08:55;;;;;;;6.13;3.93;;;18.50;67.30;;;;;;5047202;28;44136;-72
2023/04/28 05:11:25;;;;;;;6.73;4.80;;;18.50;67.50;;;;;;5045396;28;44345;-73
2023/04/28 05:13:53;;;;;;;5.73;4.57;;;18.50;67.70;;;;;;5050943;28;43811;-73
2023/04/28 05:16:21;;;;;;;6.30;3.90;;;18.50;67.60;;;;;;5046384;28;43518;-76
2023/04/28 05:19:04;;;;;;;5.93;4.27;;;18.50;67.50;;;;;;5054404;28;46037;-73
2023/04/28 05:21:35;;;;;;;4.10;3.70;;;18.40;67.40;;;;;;5058396;28;45063;-72
2023/04/28 05:24:03;;;;;;;5.30;4.10;;;18.40;67.60;;;;;;5046032;28;43444;-75
2023/04/28 05:26:31;;;;;;;7.60;4.73;;;18.40;67.90;;;;;;5043511;28;45038;-72
2023/04/28 05:29:05;;;;;;;4.87;4.30;;;18.40;67.80;;;;;;5046002;28;44015;-74
2023/04/28 05:31:33;;;;;;;4.83;3.67;;;18.40;67.50;;;;;;5048454;28;43555;-73
2023/04/28 05:34:01;;;;;;;4.63;4.00;;;18.40;67.50;;;;;;5046950;28;43408;-73
2023/04/28 05:36:31;;;;;;;4.87;4.37;;;18.40;67.60;;;;;;5047886;28;43481;-72
2023/04/28 05:38:59;;;;;;;5.43;4.37;;;18.40;67.70;;;;;;5041870;28;45638;-73
2023/04/28 05:41:27;;;;;;;5.80;4.23;;;18.40;68.00;;;;;;5057720;28;44695;-73
2023/04/28 05:43:55;;;;;;;4.43;3.73;;;18.40;67.90;;;;;;5061221;28;43500;-73
2023/04/28 05:46:23;;;;;;;5.90;4.30;;;18.50;67.50;;;;;;5050757;28;43489;-76
2023/04/28 05:48:59;;;;;;;4.37;3.77;;;18.60;67.20;;;;;;5045881;28;44012;-72
2023/04/28 05:51:34;;;;;;;5.40;3.90;;;18.70;67.10;;;;;;5047563;28;43933;-72
2023/04/28 05:54:02;;;;;;;5.87;4.63;;;18.60;67.10;;;;;;5042181;28;43565;-73
2023/04/28 05:56:33;;;;;;;6.43;4.53;;;18.70;67.30;;;;;;5048642;28;43463;-74
2023/04/28 05:59:03;;;;;;;4.17;3.83;;;18.60;67.20;;;;;;5048739;28;45940;-74
2023/04/28 06:01:31;;;;;;;4.60;3.90;;;18.70;67.10;;;;;;5040822;28;43456;-72
2023/04/28 06:03:59;;;;;;;4.70;4.00;;;18.60;67.10;;;;;;5039684;28;43589;-72
2023/04/28 06:06:28;;;;;;;5.30;4.10;;;18.50;67.20;;;;;;5049049;28;43437;-73
2023/04/28 06:08:58;;;;;;;4.73;4.07;;;18.50;67.60;;;;;;5045355;28;43825;-74
2023/04/28 06:11:27;;;;;;;5.80;4.20;;;18.50;67.60;;;;;;5039590;28;44860;-73
2023/04/28 06:13:55;;;;;;;4.27;3.83;;;18.50;67.40;;;;;;5042865;28;44061;-74
2023/04/28 06:16:25;;;;;;;3.87;3.57;;;18.50;67.50;;;;;;5041500;28;43558;-72
2023/04/28 06:18:53;;;;;;;4.77;4.30;;;18.50;67.50;;;;;;5046259;28;45248;-72
2023/04/28 06:21:23;;;;;;;4.07;3.67;;;18.40;67.60;;;;;;5044761;28;44681;-72
2023/04/28 06:23:51;;;;;;;4.30;3.80;;;18.40;67.80;;;;;;5055156;28;44049;-73
2023/04/28 06:26:20;;;;;;;4.77;3.57;;;18.40;67.70;;;;;;5047616;28;43493;-73
2023/04/28 06:28:51;;;;;;;4.13;3.80;;;18.40;67.50;;;;;;5041874;28;45462;-72
2023/04/28 06:31:19;;;;;;;4.07;3.77;;;18.40;67.60;;;;;;5048134;28;44900;-72
2023/04/28 06:33:47;;;;;;;4.40;4.00;;;18.40;67.70;;;;;;5048783;28;43521;-75
2023/04/28 06:36:16;;;;;;;5.33;4.00;;;18.40;68.00;;;;;;5048505;28;43619;-72
2023/04/28 06:38:45;;;;;;;4.37;3.97;;;18.40;67.90;;;;;;5046456;28;46294;-72
2023/04/28 06:41:13;;;;;;;3.63;3.33;;;18.50;67.70;;;;;;5056419;28;45089;-73
2023/04/28 06:43:45;;;;;;;4.27;3.67;;;18.60;67.50;;;;;;5044560;28;43353;-72
2023/04/28 06:46:21;;;;;;;3.50;3.20;;;18.70;67.30;;;;;;5049497;28;43793;-72
2023/04/28 06:48:49;;;;;;;5.53;4.10;;;18.60;66.90;;;;;;5048530;28;45674;-73
2023/04/28 06:51:17;;;;;;;3.63;3.33;;;18.60;67.30;;;;;;5059411;28;44823;-72
2023/04/28 06:53:45;;;;;;;3.87;3.47;;;18.60;67.20;;;;;;5042197;28;43508;-71
2023/04/28 06:56:14;;;;;;;3.77;3.43;;;18.60;67.20;;;;;;5045808;28;43544;-73
2023/04/28 06:58:42;;;;;;;3.80;3.50;;;18.60;67.10;;;;;;5045314;28;43924;-73
2023/04/28 07:01:11;;;;;;;3.87;3.57;;;18.50;67.10;;;;;;5047492;28;43408;-71
2023/04/28 07:03:39;;;;;;;3.70;3.40;;;18.50;67.30;;;;;;5046541;28;43384;-72
2023/04/28 07:06:07;;;;;;;4.47;3.63;;;18.40;67.70;;;;;;5050040;28;43378;-72
2023/04/28 07:08:35;;;;;;;4.00;3.60;;;18.50;67.70;;;;;;5042597;28;43945;-72
2023/04/28 07:11:05;;;;;;;3.83;3.53;;;18.50;67.60;;;;;;5039753;28;43427;-72
2023/04/28 07:13:33;;;;;;;3.70;3.40;;;18.50;67.60;;;;;;5041928;28;43392;-71
2023/04/28 07:16:01;;;;;;;3.67;3.37;;;18.40;67.60;;;;;;5055028;28;43496;-73
2023/04/28 07:18:30;;;;;;;3.53;3.23;;;18.40;67.80;;;;;;5042224;28;43604;-74
2023/04/28 07:20:58;;;;;;;4.00;3.60;;;18.40;68.00;;;;;;5044220;28;44585;-75
2023/04/28 07:23:28;;;;;;;4.13;3.73;;;18.50;67.90;;;;;;5042671;28;43464;-74
2023/04/28 07:26:03;;;;;;;3.23;3.03;;;18.60;67.60;;;;;;5041974;28;43598;-74
2023/04/28 07:28:31;;;;;;;3.57;3.27;;;18.60;67.40;;;;;;5043316;28;45675;-71
2023/04/28 07:31:01;;;;;;;3.70;3.30;;;18.60;67.20;;;;;;5035845;28;43502;-71
2023/04/28 07:33:31;;;;;;;3.20;3.00;;;18.50;67.40;;;;;;5040427;28;43507;-72
2023/04/28 07:36:01;;;;;;;3.60;3.40;;;18.50;67.50;;;;;;5046852;28;43517;-71
2023/04/28 07:38:32;;;;;;;3.40;3.20;;;18.60;67.50;;;;;;5044870;28;43608;-72
2023/04/28 07:41:02;;;;;;;3.20;3.00;;;18.50;67.30;;;;;;5042978;28;44449;-72
2023/04/28 07:43:30;;;;;;;3.50;3.20;;;18.50;67.40;;;;;;5045361;28;43384;-73
2023/04/28 07:45:58;;;;;;;3.53;3.23;;;18.50;67.50;;;;;;5048152;28;43360;-72
2023/04/28 07:48:26;;;;;;;3.40;3.10;;;18.40;67.80;;;;;;5044842;28;44363;-73
2023/04/28 07:50:56;;;;;;;3.30;3.10;;;18.40;67.70;;;;;;5047167;28;43406;-73
2023/04/28 07:53:25;;;;;;;3.17;2.97;;;18.50;67.70;;;;;;5041787;28;43472;-73
2023/04/28 07:55:53;;;;;;;3.33;3.10;;;18.40;67.60;;;;;;5049240;28;43435;-72
2023/04/28 07:58:21;;;;;;;3.37;3.13;;;18.40;67.70;;;;;;5045237;28;43765;-73
2023/04/28 08:00:49;;;;;;;3.53;3.23;;;18.40;67.80;;;;;;5049394;28;43403;-73
2023/04/28 08:03:17;;;;;;;3.30;3.10;;;18.40;68.10;;;;;;5047229;28;43436;-73
2023/04/28 08:05:45;;;;;;;3.30;3.00;;;18.40;67.90;;;;;;5058352;28;44036;-73
2023/04/28 08:08:15;;;;;;;3.20;3.00;;;18.40;67.80;;;;;;5043126;28;43707;-72
2023/04/28 08:10:43;;;;;;;3.00;2.80;;;18.40;67.70;;;;;;5042522;28;43454;-73
2023/04/28 08:13:11;;;;;;;3.10;2.90;;;18.40;67.80;;;;;;5043797;28;43383;-72
2023/04/28 08:15:39;;;;;;;3.40;3.10;;;18.30;68.00;;;;;;5043910;28;43327;-72
2023/04/28 08:18:07;;;;;;;3.20;3.00;;;18.40;68.30;;;;;;5043965;28;43953;-72
2023/04/28 08:20:35;;;;;;;3.00;2.80;;;18.40;67.90;;;;;;5042937;28;43423;-74
2023/04/28 08:23:03;;;;;;;3.30;3.03;;;18.60;67.70;;;;;;5045264;28;43398;-73
2023/04/28 08:25:32;;;;;;;3.27;3.07;;;18.60;67.30;;;;;;5045639;28;43419;-73
2023/04/28 08:28:02;;;;;;;3.17;2.97;;;18.70;67.20;;;;;;5051601;28;43865;-74
2023/04/28 08:30:30;;;;;;;3.07;2.87;;;18.70;67.00;;;;;;5044443;28;45074;-73
2023/04/28 08:32:58;;;;;;;3.13;2.93;;;18.60;67.30;;;;;;5041638;28;43436;-72
2023/04/28 08:35:26;;;;;;;3.10;2.90;;;18.60;67.30;;;;;;5045066;28;43360;-71
2023/04/28 08:37:54;;;;;;;2.90;2.80;;;18.60;67.20;;;;;;5049026;28;43583;-73
2023/04/28 08:40:23;;;;;;;2.70;2.60;;;18.60;67.20;;;;;;5042801;28;44079;-73
2023/04/28 08:42:52;;;;;;;3.00;2.87;;;18.50;67.30;;;;;;5044883;28;43397;-73
2023/04/28 08:45:20;;;;;;;2.73;2.60;;;18.50;67.50;;;;;;5042263;28;43448;-72
2023/04/28 08:47:48;;;;;;;3.07;2.87;;;18.50;67.80;;;;;;5048741;28;46843;-72
2023/04/28 08:50:17;;;;;;;3.17;2.97;;;18.50;67.80;;;;;;5063086;28;44624;-72
2023/04/28 08:52:44;;;;;;;2.73;2.53;;;18.50;67.70;;;;;;5058497;28;43353;-72
2023/04/28 08:55:13;;;;;;;2.80;2.70;;;18.40;67.60;;;;;;5058681;28;43552;-73
2023/04/28 08:57:43;;;;;;;2.60;2.50;;;18.40;67.70;;;;;;5041335;28;44507;-73
2023/04/28 09:00:13;;;;;;;2.97;2.87;;;18.40;68.10;;;;;;5049723;28;43494;-72
2023/04/28 09:02:41;;;;;;;3.00;2.80;;;18.40;68.00;;;;;;5042805;28;43405;-73
2023/04/28 09:05:10;;;;;;;2.63;2.47;;;18.40;67.90;;;;;;5045970;28;43452;-72
2023/04/28 09:07:39;;;;;;;2.80;2.70;;;18.40;67.80;;;;;;5044103;28;43826;-71
2023/04/28 09:10:17;;;;;;;2.50;2.40;;;18.40;67.90;;;;;;5046765;28;44933;-72
2023/04/28 09:12:45;;;;;;;2.77;2.67;;;18.40;68.00;;;;;;5027309;28;43411;-71
2023/04/28 09:15:27;;;;;;;2.53;2.43;;;18.40;68.30;;;;;;5030621;28;43959;-72
2023/04/28 09:17:56;;;;;;;3.00;2.80;;;18.40;68.10;;;;;;5026359;28;44007;-70
2023/04/28 09:20:25;;;;;;;2.67;2.57;;;18.50;67.80;;;;;;5033638;28;43447;-71
2023/04/28 09:22:53;;;;;;;2.80;2.67;;;18.60;67.50;;;;;;5029981;28;43976;-72
2023/04/28 09:25:25;;;;;;;3.20;3.00;;;18.60;67.30;;;;;;5034112;28;43429;-72
2023/04/28 09:27:53;;;;;;;3.23;3.00;;;18.60;67.00;;;;;;5029857;28;43985;-71
2023/04/28 09:30:38;;;;;;;2.60;2.50;;;18.60;67.50;;;;;;5032906;28;43579;-73
2023/04/28 09:33:07;;;;;;;3.23;3.03;;;18.60;67.50;;;;;;5037944;28;43532;-71
2023/04/28 09:35:41;;;;;;;2.73;2.63;;;18.60;67.20;;;;;;5030387;28;43527;-72
2023/04/28 09:38:09;;;;;;;3.00;2.80;;;18.50;67.10;;;;;;5032141;28;43772;-73
2023/04/28 09:40:52;;;;;;;2.40;2.30;;;18.50;67.40;;;;;;5032085;28;44546;-73
2023/04/28 09:43:28;;;;;;;2.97;2.77;;;18.50;67.80;;;;;;5029751;28;43416;-73
2023/04/28 09:45:58;;;;;;;2.67;2.57;;;18.50;67.90;;;;;;5028513;28;43479;-73
2023/04/28 09:48:31;;;;;;;2.33;2.23;;;18.50;67.70;;;;;;5047550;28;45995;-71
2023/04/28 09:51:00;;;;;;;2.50;2.40;;;18.50;67.70;;;;;;5035424;28;44950;-72
2023/04/28 09:53:28;;;;;;;3.03;2.83;;;18.40;67.70;;;;;;5043559;28;43550;-74
2023/04/28 09:55:57;;;;;;;2.80;2.70;;;18.40;67.80;;;;;;5033232;28;43584;-71
2023/04/28 09:58:28;;;;;;;3.10;2.90;;;18.40;68.20;;;;;;5031780;28;43773;-72
2023/04/28 10:00:58;;;;;;;2.67;2.57;;;18.40;68.00;;;;;;5030964;28;43501;-71
2023/04/28 10:03:27;;;;;;;3.07;2.87;;;18.40;67.70;;;;;;5026282;28;43410;-71
2023/04/28 10:05:57;;;;;;;2.87;2.67;;;18.40;67.80;;;;;;5025899;28;43527;-71
2023/04/28 10:08:25;;;;;;;2.70;2.60;;;18.40;67.90;;;;;;5029924;28;47100;-73
2023/04/28 10:10:56;;;;;;;2.63;2.53;;;18.40;68.00;;;;;;5031348;28;43523;-73
2023/04/28 10:13:24;;;;;;;3.03;2.83;;;18.40;68.30;;;;;;5023593;28;44370;-71
2023/04/28 10:15:56;;;;;;;2.90;2.70;;;18.50;68.20;;;;;;5034258;28;43555;-71
2023/04/28 10:18:27;;;;;;;2.97;2.77;;;18.60;67.90;;;;;;5031846;28;43655;-73
2023/04/28 10:20:57;;;;;;;2.73;2.53;;;18.70;67.60;;;;;;5027738;28;43416;-71
2023/04/28 10:23:59;;;;;;;3.03;2.80;;;18.70;67.20;;;;;;5031393;28;43802;-72
2023/04/28 10:26:46;;;;;;;2.80;2.70;;;18.70;67.00;;;;;;5033226;28;43520;-71
2023/04/28 10:29:14;;;;;;;2.37;2.27;;;18.70;67.50;;;;;;5018210;28;45671;-72
2023/04/28 10:31:51;;;;;;;3.10;2.90;;;18.70;67.40;;;;;;5033701;28;43531;-73
2023/04/28 10:34:30;;;;;;;2.67;2.57;;;18.70;67.20;;;;;;5034247;28;43474;-74
2023/04/28 10:36:59;;;;;;;2.67;2.57;;;18.60;67.30;;;;;;5033091;28;43442;-71
2023/04/28 10:39:27;;;;;;;2.87;2.67;;;18.50;67.50;;;;;;5033940;28;43882;-71
2023/04/28 10:41:55;;;;;;;2.83;2.70;;;18.50;67.90;;;;;;5028702;28;45061;-71
2023/04/28 10:44:41;;;;;;;3.00;2.80;;;18.50;67.70;;;;;;5036690;28;43388;-72
2023/04/28 10:47:09;;;;;;;2.70;2.60;;;18.50;67.70;;;;;;5032977;28;44081;-72
2023/04/28 10:50:10;;;;;;;3.07;2.87;;;18.50;67.80;;;;;;5043609;28;43918;-73
2023/04/28 10:52:50;;;;;;;2.73;2.57;;;18.50;67.90;;;;;;5031304;28;43553;-73
2023/04/28 10:55:38;;;;;;;2.80;2.60;;;18.40;68.10;;;;;;5033085;28;43660;-73
2023/04/28 10:58:32;;;;;;;2.70;2.60;;;18.50;68.20;;;;;;5031159;28;43500;-72
2023/04/28 11:01:25;;;;;;;3.00;2.80;;;18.60;67.90;;;;;;5029801;28;43761;-72
2023/04/28 11:03:58;;;;;;;2.80;2.70;;;18.70;67.60;;;;;;5034674;28;43989;-72
2023/04/28 11:06:30;;;;;;;2.43;2.33;;;18.70;67.30;;;;;;5028921;28;43520;-72
2023/04/28 11:08:59;;;;;;;3.03;2.87;;;18.60;67.60;;;;;;5038725;28;43489;-73
2023/04/28 11:11:27;;;;;;;2.50;2.40;;;18.60;67.70;;;;;;5038711;28;43864;-72
2023/04/28 11:13:55;;;;;;;2.70;2.60;;;18.60;67.40;;;;;;5026187;28;45206;-72
2023/04/28 11:16:24;;;;;;;2.30;2.20;;;18.60;67.40;;;;;;5028907;28;43476;-71
2023/04/28 11:19:06;;;;;;;2.60;2.40;;;18.60;67.60;;;;;;5031473;28;43455;-72
2023/04/28 11:21:35;;;;;;;2.40;2.30;;;18.50;67.60;;;;;;5033890;28;43747;-72
2023/04/28 11:24:08;;;;;;;2.60;2.50;;;18.50;68.00;;;;;;5043728;28;43642;-71
2023/04/28 11:26:37;;;;;;;2.60;2.50;;;18.50;67.90;;;;;;5030494;28;44137;-72
2023/04/28 11:29:05;;;;;;;2.10;2.10;;;18.50;67.70;;;;;;5040542;28;43490;-72
2023/04/28 11:31:33;;;;;;;2.33;2.23;;;18.50;67.80;;;;;;5040409;28;43943;-73
2023/04/28 11:34:04;;;;;;;2.47;2.37;;;18.50;67.80;;;;;;5037974;28;43443;-73
2023/04/28 11:36:35;;;;;;;2.30;2.20;;;18.40;68.10;;;;;;5038072;28;43491;-71
2023/04/28 11:39:06;;;;;;;2.30;2.20;;;18.40;68.20;;;;;;5037371;28;43444;-73
2023/04/28 11:41:34;;;;;;;2.40;2.30;;;18.50;68.00;;;;;;5037033;28;43877;-71
2023/04/28 11:44:10;;;;;;;2.30;2.20;;;18.50;67.90;;;;;;5031412;28;43430;-72
2023/04/28 11:46:44;;;;;;;1.93;1.83;;;18.50;68.00;;;;;;5032103;28;43443;-72
2023/04/28 11:49:13;;;;;;;2.43;2.33;;;18.40;68.00;;;;;;5039933;28;43471;-72
2023/04/28 11:51:44;;;;;;;2.30;2.20;;;18.40;68.40;;;;;;5025168;28;44091;-73
2023/04/28 11:54:13;;;;;;;1.90;1.90;;;18.50;68.40;;;;;;5031707;28;43432;-72
2023/04/28 11:56:43;;;;;;;2.23;2.13;;;18.60;68.10;;;;;;5020111;28;43423;-72
2023/04/28 11:59:12;;;;;;;2.33;2.23;;;18.70;67.80;;;;;;5035590;28;43509;-73
2023/04/28 12:01:47;;;;;;;2.27;2.23;;;18.70;67.40;;;;;;5032071;28;45110;-72
2023/04/28 12:04:25;;;;;;;2.33;2.23;;;18.60;67.20;;;;;;5034734;28;43516;-72
2023/04/28 12:07:00;;;;;;;2.37;2.27;;;18.60;67.80;;;;;;5034488;28;43474;-72
2023/04/28 12:09:29;;;;;;;1.80;1.80;;;18.60;67.70;;;;;;5038356;28;43475;-73
2023/04/28 12:11:57;;;;;;;2.17;2.07;;;18.60;67.40;;;;;;5030355;28;43896;-73
2023/04/28 12:14:25;;;;;;;2.20;2.10;;;18.60;67.50;;;;;;5040832;28;43534;-73
2023/04/28 12:16:53;;;;;;;2.20;2.10;;;18.50;67.70;;;;;;5033932;28;43996;-72
2023/04/28 12:19:21;;;;;;;2.20;2.10;;;18.50;67.90;;;;;;5031056;28;44059;-72
2023/04/28 12:22:03;;;;;;;2.23;2.13;;;18.50;68.10;;;;;;5026965;28;43853;-72
2023/04/28 12:24:31;;;;;;;2.00;1.90;;;18.50;67.90;;;;;;5032110;28;43436;-73
2023/04/28 12:27:15;;;;;;;2.20;2.10;;;18.50;67.90;;;;;;5036507;28;43959;-72
2023/04/28 12:29:44;;;;;;;2.13;2.10;;;18.50;67.90;;;;;;5030653;28;43515;-72
2023/04/28 12:32:13;;;;;;;1.90;1.90;;;18.50;68.10;;;;;;5029096;28;43938;-72
2023/04/28 12:34:42;;;;;;;1.73;1.73;;;18.50;68.40;;;;;;5030141;28;44701;-72
2023/04/28 12:37:11;;;;;;;1.90;1.80;;;18.50;68.30;;;;;;5031963;28;43514;-71
2023/04/28 12:39:40;;;;;;;2.20;2.10;;;18.60;68.00;;;;;;5033326;28;43665;-72
2023/04/28 12:42:08;;;;;;;2.37;2.27;;;18.70;67.80;;;;;;5038686;28;45883;-74
2023/04/28 12:44:37;;;;;;;1.80;1.80;;;18.70;67.70;;;;;;5041812;28;43411;-71
2023/04/28 12:47:06;;;;;;;2.13;2.03;;;18.60;67.70;;;;;;5033556;28;43929;-72
2023/04/28 12:49:34;;;;;;;2.27;2.17;;;18.60;67.90;;;;;;5050471;28;44691;-72
2023/04/28 12:52:02;;;;;;;1.90;1.90;;;18.60;67.80;;;;;;5048611;28;43925;-72
2023/04/28 12:54:32;;;;;;;1.80;1.80;;;18.70;67.80;;;;;;5042040;28;43412;-70
2023/04/28 12:57:00;;;;;;;1.93;1.83;;;18.60;67.80;;;;;;5030316;28;43475;-71
2023/04/28 12:59:28;;;;;;;1.70;1.70;;;18.60;67.90;;;;;;5032504;28;43601;-71
2023/04/28 13:01:57;;;;;;;1.70;1.70;;;18.50;68.00;;;;;;5033788;28;43745;-71